Shalersville, Ohio
Current Conditions -  °F | °C
As of 8:16 PM on Tuesday 27 Jan 2015 (Local Time) from KPOV Reporting Station
Clear Clear  
Wind Chill:   Ceiling: Unl
Heat Index: 14°   Visibility: 10mi
Dew Point:   Wind: 5mph
Humidity: 76%   Direction: 290°WNW
Pressure: 30.11"   Gusts: NA
Location:  41.2966°N, 81.2269°W
Report Text: KPOV 280116Z AUTO 29004KT 10SM CLR M10/M14 A3011 RMK AO2 T11021137
Loading
Personal Weather Stations






























Interactive Weather Map New forecast layout! Learn more

10-Day Weather Forecast

Advertisements
Track Severe Weather on mobile